createdAt,value
2023-04-16T00:01:59.894Z,2.37
2023-04-16T00:04:30.066Z,2.00
2023-04-16T00:06:56.914Z,2.45
2023-04-16T00:09:23.955Z,2.10
2023-04-16T00:11:51.036Z,2.20
2023-04-16T00:14:17.935Z,2.28
2023-04-16T00:16:44.800Z,1.95
2023-04-16T00:19:12.364Z,1.92
2023-04-16T00:21:39.350Z,2.40
2023-04-16T00:24:06.498Z,1.95
2023-04-16T00:26:33.570Z,2.10
2023-04-16T00:29:01.090Z,1.60
2023-04-16T00:31:32.915Z,1.70
2023-04-16T00:34:00.381Z,1.80
2023-04-16T00:36:28.617Z,1.80
2023-04-16T00:38:57.154Z,1.70
2023-04-16T00:41:24.546Z,1.90
2023-04-16T00:43:51.769Z,1.80
2023-04-16T00:46:24.622Z,1.80
2023-04-16T00:48:54.238Z,1.88
2023-04-16T00:51:21.664Z,1.67
2023-04-16T00:53:49.227Z,1.58
2023-04-16T00:56:17.625Z,1.63
2023-04-16T00:58:45.173Z,1.70
2023-04-16T01:01:14.466Z,1.60
2023-04-16T01:03:46.120Z,1.80
2023-04-16T01:06:14.038Z,1.73
2023-04-16T01:08:41.213Z,1.92
2023-04-16T01:11:08.298Z,1.98
2023-04-16T01:13:39.264Z,1.80
2023-04-16T01:16:08.285Z,2.10
2023-04-16T01:18:36.632Z,2.17
2023-04-16T01:21:04.083Z,2.50
2023-04-16T01:23:31.438Z,2.22
2023-04-16T01:25:58.270Z,2.10
2023-04-16T01:28:25.613Z,2.38
2023-04-16T01:30:52.643Z,2.83
2023-04-16T01:33:32.784Z,2.90
2023-04-16T01:35:59.799Z,2.55
2023-04-16T01:38:26.599Z,3.28
2023-04-16T01:41:00.031Z,3.58
2023-04-16T01:43:27.080Z,3.30
2023-04-16T01:46:16.046Z,3.60
2023-04-16T01:48:43.414Z,3.42
2023-04-16T01:51:10.278Z,3.37
2023-04-16T01:53:37.467Z,3.63
2023-04-16T01:56:04.862Z,3.35
2023-04-16T01:58:33.419Z,3.10
2023-04-16T02:01:00.942Z,3.53
2023-04-16T02:03:28.347Z,3.70
2023-04-16T02:05:55.264Z,3.60
2023-04-16T02:08:22.139Z,4.40
2023-04-16T02:10:50.876Z,4.20
2023-04-16T02:13:17.847Z,4.45
2023-04-16T02:15:48.223Z,4.40
2023-04-16T02:18:18.427Z,4.10
2023-04-16T02:20:47.110Z,4.40
2023-04-16T02:23:17.416Z,3.83
2023-04-16T02:25:47.070Z,4.38
2023-04-16T02:28:17.247Z,3.90
2023-04-16T02:30:46.260Z,4.10
2023-04-16T02:33:15.288Z,4.00
2023-04-16T02:35:52.439Z,4.00
2023-04-16T02:38:19.935Z,3.60
2023-04-16T02:40:46.745Z,3.67
2023-04-16T02:43:13.715Z,4.60
2023-04-16T02:45:40.858Z,3.97
2023-04-16T02:48:09.094Z,3.55
2023-04-16T02:50:36.182Z,3.78
2023-04-16T02:53:04.374Z,3.60
2023-04-16T02:55:31.291Z,3.73
2023-04-16T02:57:58.174Z,4.20
2023-04-16T03:00:25.820Z,3.78
2023-04-16T03:02:52.840Z,4.18
2023-04-16T03:05:19.916Z,4.35
2023-04-16T03:07:46.972Z,4.35
2023-04-16T03:10:15.262Z,4.03
2023-04-16T03:12:42.127Z,4.90
2023-04-16T03:15:09.574Z,4.50
2023-04-16T03:17:36.474Z,4.18
2023-04-16T03:20:04.208Z,4.57
2023-04-16T03:22:31.421Z,5.00
2023-04-16T03:24:58.285Z,4.88
2023-04-16T03:27:25.090Z,4.88
2023-04-16T03:29:52.306Z,4.70
2023-04-16T03:32:19.436Z,5.15
2023-04-16T03:34:46.444Z,4.70
2023-04-16T03:37:13.270Z,4.93
2023-04-16T03:39:40.348Z,5.00
2023-04-16T03:42:07.246Z,4.68
2023-04-16T03:44:35.042Z,4.50
2023-04-16T03:47:02.318Z,4.75
2023-04-16T03:49:29.416Z,4.90
2023-04-16T03:51:57.346Z,4.78
2023-04-16T03:54:25.748Z,5.15
2023-04-16T03:57:03.121Z,5.30
2023-04-16T03:59:29.968Z,5.63
2023-04-16T04:01:57.158Z,5.60
2023-04-16T04:04:24.278Z,5.70
2023-04-16T04:06:51.141Z,6.25
2023-04-16T04:09:18.036Z,6.10
2023-04-16T04:11:45.655Z,6.43
2023-04-16T04:14:12.462Z,6.80
2023-04-16T04:16:39.394Z,7.25
2023-04-16T04:19:06.436Z,7.10
2023-04-16T04:21:33.375Z,7.05
2023-04-16T04:24:00.221Z,6.80
2023-04-16T04:26:29.691Z,6.50
2023-04-16T04:28:57.100Z,6.55
2023-04-16T04:31:24.040Z,6.95
2023-04-16T04:33:51.101Z,6.97
2023-04-16T04:36:17.999Z,7.18
2023-04-16T04:38:45.023Z,7.10
2023-04-16T04:41:11.983Z,8.15
2023-04-16T04:43:39.360Z,7.35
2023-04-16T04:46:06.620Z,7.80
2023-04-16T04:48:33.881Z,7.70
2023-04-16T04:51:03.517Z,8.23
2023-04-16T04:53:31.631Z,8.10
2023-04-16T04:56:05.471Z,8.37
2023-04-16T04:58:38.884Z,8.10
2023-04-16T05:01:06.290Z,8.05
2023-04-16T05:03:33.298Z,8.82
2023-04-16T05:06:00.272Z,8.68
2023-04-16T05:08:27.288Z,9.77
2023-04-16T05:10:54.084Z,9.95
2023-04-16T05:13:21.045Z,11.05
2023-04-16T05:15:48.028Z,11.50
2023-04-16T05:18:14.884Z,11.02
2023-04-16T05:20:41.782Z,10.90
2023-04-16T05:23:08.898Z,11.93
2023-04-16T05:25:35.758Z,12.73
2023-04-16T05:28:02.698Z,13.15
2023-04-16T05:30:29.636Z,14.18
2023-04-16T05:32:56.588Z,13.02
2023-04-16T05:35:23.465Z,13.77
2023-04-16T05:37:50.516Z,14.65
2023-04-16T05:40:17.400Z,14.98
2023-04-16T05:42:44.237Z,14.60
2023-04-16T05:45:11.242Z,14.43
2023-04-16T05:47:38.161Z,14.43
2023-04-16T05:50:05.547Z,13.63
2023-04-16T05:52:32.468Z,15.00
2023-04-16T05:55:01.680Z,14.35
2023-04-16T05:57:29.272Z,14.60
2023-04-16T05:59:56.175Z,14.15
2023-04-16T06:02:23.226Z,14.00
2023-04-16T06:04:50.415Z,13.45
2023-04-16T06:07:17.370Z,14.25
2023-04-16T06:09:45.130Z,13.95
2023-04-16T06:12:12.069Z,12.68
2023-04-16T06:14:38.916Z,13.85
2023-04-16T06:17:05.743Z,13.73
2023-04-16T06:19:32.549Z,13.20
2023-04-16T06:21:59.643Z,14.07
2023-04-16T06:24:26.405Z,13.15
2023-04-16T06:26:54.362Z,13.60
2023-04-16T06:29:27.938Z,13.80
2023-04-16T06:32:00.732Z,13.63
2023-04-16T06:34:28.577Z,14.18
2023-04-16T06:36:55.716Z,12.07
2023-04-16T06:39:22.511Z,13.30
2023-04-16T06:41:49.666Z,12.75
2023-04-16T06:44:17.894Z,13.13
2023-04-16T06:46:44.685Z,12.82
2023-04-16T06:49:11.935Z,11.53
2023-04-16T06:51:38.999Z,11.10
2023-04-16T06:54:06.252Z,11.07
2023-04-16T06:56:33.313Z,11.30
2023-04-16T06:59:00.977Z,10.88
2023-04-16T07:01:28.718Z,10.57
2023-04-16T07:03:55.932Z,10.30
2023-04-16T07:06:23.047Z,10.40
2023-04-16T07:08:49.923Z,11.00
2023-04-16T07:11:17.194Z,10.90
2023-04-16T07:13:44.020Z,10.60
2023-04-16T07:16:11.022Z,11.45
2023-04-16T07:18:38.046Z,10.80
2023-04-16T07:21:04.865Z,10.75
2023-04-16T07:23:31.813Z,10.52
2023-04-16T07:25:58.726Z,10.60
2023-04-16T07:28:25.833Z,10.17
2023-04-16T07:30:52.810Z,10.02
2023-04-16T07:33:19.646Z,10.60
2023-04-16T07:35:46.511Z,10.63
2023-04-16T07:38:13.431Z,11.15
2023-04-16T07:40:40.525Z,10.25
2023-04-16T07:43:07.438Z,10.37
2023-04-16T07:45:34.384Z,10.27
2023-04-16T07:48:01.476Z,10.52
2023-04-16T07:50:28.551Z,10.45
2023-04-16T07:52:55.369Z,10.52
2023-04-16T07:55:22.330Z,10.70
2023-04-16T07:57:49.222Z,11.55
2023-04-16T08:00:16.495Z,9.82
2023-04-16T08:02:44.530Z,10.88
2023-04-16T08:05:13.319Z,10.80
2023-04-16T08:07:40.635Z,11.10
2023-04-16T08:10:08.197Z,10.80
2023-04-16T08:12:35.373Z,10.80
2023-04-16T08:15:02.263Z,9.70
2023-04-16T08:17:30.199Z,9.80
2023-04-16T08:19:57.186Z,9.60
2023-04-16T08:22:24.006Z,9.45
2023-04-16T08:24:50.850Z,9.30
2023-04-16T08:27:19.600Z,8.45
2023-04-16T08:29:47.471Z,8.77
2023-04-16T08:32:14.419Z,8.82
2023-04-16T08:34:42.449Z,8.73
2023-04-16T08:37:09.668Z,7.57
2023-04-16T08:39:36.658Z,8.88
2023-04-16T08:42:11.219Z,8.50
2023-04-16T08:44:41.567Z,8.95
2023-04-16T08:47:11.899Z,9.10
2023-04-16T08:49:44.378Z,8.38
2023-04-16T08:52:18.355Z,8.60
2023-04-16T08:54:58.413Z,8.80
2023-04-16T08:57:48.941Z,9.17
2023-04-16T09:00:16.848Z,8.48
2023-04-16T09:02:44.136Z,8.63
2023-04-16T09:05:14.381Z,8.07
2023-04-16T09:07:42.158Z,8.25
2023-04-16T09:10:09.921Z,8.05
2023-04-16T09:12:36.900Z,7.82
2023-04-16T09:15:05.169Z,8.15
2023-04-16T09:17:32.049Z,8.23
2023-04-16T09:19:59.179Z,7.95
2023-04-16T09:22:26.124Z,8.02
2023-04-16T09:24:53.049Z,7.50
2023-04-16T09:27:20.713Z,8.40
2023-04-16T09:29:47.720Z,7.57
2023-04-16T09:32:14.724Z,7.25
2023-04-16T09:34:59.204Z,7.25
2023-04-16T09:37:27.816Z,7.07
2023-04-16T09:40:02.526Z,7.47
2023-04-16T09:42:32.309Z,7.18
2023-04-16T09:45:01.314Z,7.00
2023-04-16T09:47:41.320Z,6.78
2023-04-16T09:50:12.266Z,6.90
2023-04-16T09:52:39.706Z,6.57
2023-04-16T09:55:06.983Z,6.70
2023-04-16T09:57:37.028Z,6.80
2023-04-16T10:00:06.230Z,6.30
2023-04-16T10:02:34.695Z,6.70
2023-04-16T10:05:05.813Z,6.80
2023-04-16T10:07:36.943Z,6.60
2023-04-16T10:10:04.589Z,6.28
2023-04-16T10:12:32.821Z,5.95
2023-04-16T10:15:00.129Z,5.80
2023-04-16T10:17:30.168Z,5.90
2023-04-16T10:19:58.248Z,5.80
2023-04-16T10:22:26.174Z,5.77
2023-04-16T10:24:53.882Z,5.85
2023-04-16T10:27:21.271Z,5.50
2023-04-16T10:29:49.282Z,5.70
2023-04-16T10:32:17.868Z,5.25
2023-04-16T10:34:47.070Z,5.20
2023-04-16T10:37:15.912Z,5.22
2023-04-16T10:39:42.783Z,5.65
2023-04-16T10:42:11.985Z,5.53
2023-04-16T10:44:42.785Z,5.18
2023-04-16T10:47:13.283Z,5.15
2023-04-16T10:49:41.365Z,5.05
2023-04-16T10:52:19.001Z,5.20
2023-04-16T10:54:50.426Z,5.30
2023-04-16T10:57:19.735Z,5.38
2023-04-16T10:59:48.791Z,5.53
2023-04-16T11:02:17.924Z,5.72
2023-04-16T11:04:46.677Z,5.65
2023-04-16T11:07:16.627Z,5.60
2023-04-16T11:10:02.517Z,6.03
2023-04-16T11:12:29.717Z,5.57
2023-04-16T11:15:06.803Z,5.50
2023-04-16T11:18:00.496Z,5.20
2023-04-16T11:20:28.385Z,5.68
2023-04-16T11:22:56.670Z,5.57
2023-04-16T11:25:26.119Z,5.72
2023-04-16T11:27:53.758Z,5.40
2023-04-16T11:30:29.911Z,5.85
2023-04-16T11:32:56.878Z,5.73
2023-04-16T11:35:23.791Z,5.82
2023-04-16T11:37:55.575Z,5.50
2023-04-16T11:40:22.532Z,5.90
2023-04-16T11:42:49.416Z,5.75
2023-04-16T11:45:16.396Z,6.10
2023-04-16T11:47:52.291Z,6.20
2023-04-16T11:50:27.656Z,7.10
2023-04-16T11:52:57.113Z,7.30
2023-04-16T11:55:24.682Z,7.25
2023-04-16T11:57:51.734Z,8.00
2023-04-16T12:00:24.461Z,8.45
2023-04-16T12:02:55.661Z,8.30
2023-04-16T12:05:39.094Z,8.32
2023-04-16T12:08:10.735Z,8.27
2023-04-16T12:10:55.496Z,8.52
2023-04-16T12:13:23.414Z,8.02
2023-04-16T12:15:56.096Z,8.30
2023-04-16T12:18:26.817Z,8.80
2023-04-16T12:20:53.876Z,8.23
2023-04-16T12:23:29.442Z,9.30
2023-04-16T12:26:02.291Z,9.27
2023-04-16T12:28:32.211Z,8.53
2023-04-16T12:30:59.545Z,8.68
2023-04-16T12:33:26.461Z,8.68
2023-04-16T12:35:53.490Z,8.98
2023-04-16T12:38:22.797Z,8.98
2023-04-16T12:40:51.070Z,9.68
2023-04-16T12:43:18.278Z,9.45
2023-04-16T12:45:45.449Z,9.40
2023-04-16T12:48:12.292Z,9.53
2023-04-16T12:50:39.834Z,9.52
2023-04-16T12:53:06.720Z,9.48
2023-04-16T12:55:33.554Z,9.20
2023-04-16T12:58:00.389Z,9.35
2023-04-16T13:00:27.330Z,9.50
2023-04-16T13:02:54.397Z,9.00
2023-04-16T13:05:21.443Z,10.25
2023-04-16T13:07:48.353Z,9.60
2023-04-16T13:10:16.647Z,9.63
2023-04-16T13:12:43.630Z,10.25
2023-04-16T13:15:11.094Z,9.20
2023-04-16T13:17:37.997Z,9.80
2023-04-16T13:20:05.613Z,8.77
2023-04-16T13:22:32.469Z,9.27
2023-04-16T13:24:59.408Z,8.93
2023-04-16T13:27:26.374Z,9.10
2023-04-16T13:29:53.358Z,9.23
2023-04-16T13:32:20.431Z,9.27
2023-04-16T13:34:47.516Z,9.40
2023-04-16T13:37:14.442Z,8.57
2023-04-16T13:39:41.581Z,9.05
2023-04-16T13:42:08.684Z,8.90
2023-04-16T13:44:35.559Z,8.80
2023-04-16T13:47:02.579Z,9.30
2023-04-16T13:49:29.673Z,8.77
2023-04-16T13:51:56.456Z,8.85
2023-04-16T13:54:23.278Z,9.53
2023-04-16T13:56:51.232Z,9.60
2023-04-16T13:59:18.734Z,9.73
2023-04-16T14:01:46.036Z,10.18
2023-04-16T14:04:13.458Z,10.10
2023-04-16T14:06:40.600Z,9.85
2023-04-16T14:09:09.591Z,14.13
2023-04-16T14:11:37.348Z,9.60
2023-04-16T14:14:04.205Z,9.45
2023-04-16T14:16:31.444Z,9.38
2023-04-16T14:18:58.461Z,9.63
2023-04-16T14:21:25.354Z,9.40
2023-04-16T14:23:52.178Z,9.70
2023-04-16T14:26:19.083Z,9.90
2023-04-16T14:28:45.942Z,10.52
2023-04-16T14:31:12.832Z,9.80
2023-04-16T14:33:39.714Z,10.30
2023-04-16T14:36:06.899Z,10.70
2023-04-16T14:38:33.699Z,10.13
2023-04-16T14:41:00.719Z,11.23
2023-04-16T14:43:27.847Z,11.38
2023-04-16T14:45:54.787Z,11.10
2023-04-16T14:48:22.187Z,11.48
2023-04-16T14:50:49.064Z,11.60
2023-04-16T14:53:16.314Z,11.93
2023-04-16T14:55:43.192Z,11.55
2023-04-16T14:58:10.890Z,11.18
2023-04-16T15:00:38.003Z,11.23
2023-04-16T15:03:05.930Z,10.73
2023-04-16T15:05:33.179Z,10.18
2023-04-16T15:08:00.598Z,11.05
2023-04-16T15:10:27.849Z,10.20
2023-04-16T15:12:54.639Z,10.60
2023-04-16T15:15:21.574Z,11.00
2023-04-16T15:17:50.456Z,10.73
2023-04-16T15:20:17.599Z,10.40
2023-04-16T15:22:44.649Z,10.57
2023-04-16T15:25:11.935Z,10.27
2023-04-16T15:27:38.778Z,10.40
2023-04-16T15:30:06.569Z,10.07
2023-04-16T15:32:33.605Z,10.73
2023-04-16T15:35:02.078Z,12.35
2023-04-16T15:37:28.870Z,11.47
2023-04-16T15:39:56.746Z,10.45
2023-04-16T15:42:24.466Z,10.90
2023-04-16T15:44:51.253Z,10.23
2023-04-16T15:47:18.198Z,11.13
2023-04-16T15:49:44.989Z,11.45
2023-04-16T15:52:12.118Z,10.82
2023-04-16T15:54:39.226Z,10.43
2023-04-16T15:57:06.426Z,9.85
2023-04-16T15:59:33.243Z,10.48
2023-04-16T16:02:00.347Z,10.40
2023-04-16T16:04:28.289Z,10.90
2023-04-16T16:06:56.248Z,10.87
2023-04-16T16:09:26.910Z,10.85
2023-04-16T16:11:54.503Z,10.50
2023-04-16T16:14:22.128Z,10.63
2023-04-16T16:16:49.134Z,10.20
2023-04-16T16:19:16.721Z,9.80
2023-04-16T16:21:43.678Z,10.73
2023-04-16T16:24:10.840Z,10.35
2023-04-16T16:26:37.854Z,10.10
2023-04-16T16:29:05.113Z,10.65
2023-04-16T16:31:31.991Z,10.10
2023-04-16T16:33:58.859Z,10.43
2023-04-16T16:36:26.585Z,9.65
2023-04-16T16:38:53.588Z,9.32
2023-04-16T16:41:20.595Z,9.95
2023-04-16T16:43:47.392Z,10.30
2023-04-16T16:46:14.471Z,9.70
2023-04-16T16:48:41.281Z,10.00
2023-04-16T16:51:10.566Z,9.88
2023-04-16T16:53:37.573Z,10.35
2023-04-16T16:56:04.565Z,10.38
2023-04-16T16:58:31.543Z,10.05
2023-04-16T17:00:58.975Z,9.88
2023-04-16T17:03:26.121Z,10.40
2023-04-16T17:05:53.010Z,10.43
2023-04-16T17:08:19.855Z,10.85
2023-04-16T17:10:46.809Z,11.23
2023-04-16T17:13:15.120Z,10.70
2023-04-16T17:15:42.152Z,10.77
2023-04-16T17:18:09.018Z,10.82
2023-04-16T17:20:35.797Z,11.15
2023-04-16T17:23:03.190Z,11.10
2023-04-16T17:25:30.465Z,11.02
2023-04-16T17:27:57.217Z,11.65
2023-04-16T17:30:25.909Z,11.37
2023-04-16T17:32:52.917Z,11.35
2023-04-16T17:35:19.839Z,11.10
2023-04-16T17:37:46.659Z,11.82
2023-04-16T17:40:15.529Z,11.97
2023-04-16T17:42:42.671Z,13.05
2023-04-16T17:45:09.879Z,12.07
2023-04-16T17:47:36.938Z,13.05
2023-04-16T17:50:04.543Z,12.85
2023-04-16T17:52:31.382Z,12.02
2023-04-16T17:55:01.347Z,15.95
2023-04-16T17:57:28.523Z,13.60
2023-04-16T17:59:55.689Z,13.47
2023-04-16T18:02:23.173Z,14.13
2023-04-16T18:04:50.624Z,13.13
2023-04-16T18:07:17.540Z,14.23
2023-04-16T18:09:44.323Z,14.27
2023-04-16T18:12:11.242Z,14.53
2023-04-16T18:14:40.739Z,12.10
2023-04-16T18:17:07.588Z,14.45
2023-04-16T18:19:35.515Z,13.80
2023-04-16T18:22:02.438Z,14.60
2023-04-16T18:24:29.291Z,14.60
2023-04-16T18:26:56.819Z,14.55
2023-04-16T18:29:25.295Z,14.05
2023-04-16T18:31:52.517Z,14.32
2023-04-16T18:34:20.697Z,14.40
2023-04-16T18:36:47.798Z,13.87
2023-04-16T18:39:14.794Z,14.02
2023-04-16T18:41:43.702Z,14.18
2023-04-16T18:44:13.309Z,13.98
2023-04-16T18:46:40.596Z,14.40
2023-04-16T18:49:07.566Z,13.93
2023-04-16T18:51:34.544Z,13.57
2023-04-16T18:54:01.368Z,13.80
2023-04-16T18:56:31.042Z,14.47
2023-04-16T18:58:57.781Z,14.30
2023-04-16T19:01:24.678Z,15.05
2023-04-16T19:03:51.661Z,14.18
2023-04-16T19:06:18.654Z,14.85
2023-04-16T19:08:45.618Z,14.93
2023-04-16T19:11:12.534Z,14.15
2023-04-16T19:13:39.853Z,15.30
2023-04-16T19:16:11.300Z,14.43
2023-04-16T19:18:39.068Z,14.68
2023-04-16T19:21:07.254Z,14.15
2023-04-16T19:23:34.154Z,14.80
2023-04-16T19:26:01.520Z,14.55
2023-04-16T19:28:28.857Z,14.90
2023-04-16T19:30:56.009Z,14.85
2023-04-16T19:33:22.880Z,14.18
2023-04-16T19:35:49.969Z,15.30
2023-04-16T19:38:16.876Z,15.05
2023-04-16T19:40:45.797Z,15.93
2023-04-16T19:43:12.937Z,14.97
2023-04-16T19:45:47.464Z,15.25
2023-04-16T19:48:14.894Z,15.25
2023-04-16T19:50:42.402Z,14.10
2023-04-16T19:53:09.517Z,14.65
2023-04-16T19:55:36.692Z,14.70
2023-04-16T19:58:06.476Z,14.20
2023-04-16T20:00:37.431Z,14.77
2023-04-16T20:03:05.191Z,15.32
2023-04-16T20:05:32.255Z,16.02
2023-04-16T20:07:59.447Z,15.38
2023-04-16T20:10:27.822Z,15.68
2023-04-16T20:12:54.813Z,16.67
2023-04-16T20:15:22.156Z,17.13
2023-04-16T20:17:49.142Z,16.92
2023-04-16T20:20:16.486Z,18.75
2023-04-16T20:22:43.776Z,19.15
2023-04-16T20:25:11.370Z,18.83
2023-04-16T20:27:38.262Z,19.08
2023-04-16T20:30:06.428Z,19.02
2023-04-16T20:32:33.529Z,18.95
2023-04-16T20:35:01.933Z,19.00
2023-04-16T20:37:29.235Z,19.55
2023-04-16T20:39:56.299Z,20.13
2023-04-16T20:42:26.188Z,20.83
2023-04-16T20:44:56.275Z,20.08
2023-04-16T20:47:23.347Z,20.00
2023-04-16T20:49:50.436Z,20.23
2023-04-16T20:52:17.346Z,19.77
2023-04-16T20:54:44.281Z,19.42
2023-04-16T20:57:11.135Z,20.48
2023-04-16T20:59:38.099Z,20.98
2023-04-16T21:02:05.448Z,20.50
2023-04-16T21:04:32.460Z,19.08
2023-04-16T21:07:03.167Z,20.63
2023-04-16T21:09:31.334Z,19.73
2023-04-16T21:11:58.253Z,19.73
2023-04-16T21:14:25.400Z,18.73
2023-04-16T21:16:52.294Z,20.35
2023-04-16T21:19:19.156Z,20.67
2023-04-16T21:21:46.192Z,20.13
2023-04-16T21:24:13.094Z,20.20
2023-04-16T21:26:40.111Z,20.13
2023-04-16T21:29:07.182Z,20.40
2023-04-16T21:31:34.302Z,21.02
2023-04-16T21:34:01.201Z,21.35
2023-04-16T21:36:29.285Z,20.92
2023-04-16T21:38:56.152Z,20.98
2023-04-16T21:41:23.038Z,21.40
2023-04-16T21:43:49.774Z,21.33
2023-04-16T21:46:16.827Z,20.73
2023-04-16T21:48:43.762Z,21.10
2023-04-16T21:51:10.712Z,20.10
2023-04-16T21:53:39.028Z,20.93
2023-04-16T21:56:06.587Z,20.10
2023-04-16T21:58:33.472Z,20.55
2023-04-16T22:01:00.504Z,19.92
2023-04-16T22:03:30.395Z,20.08
2023-04-16T22:06:01.494Z,21.15
2023-04-16T22:08:32.073Z,20.90
2023-04-16T22:11:01.307Z,21.10
2023-04-16T22:13:34.115Z,20.60
2023-04-16T22:16:03.971Z,21.00
2023-04-16T22:18:33.875Z,20.90
2023-04-16T22:21:01.052Z,21.33
2023-04-16T22:23:27.918Z,20.90
2023-04-16T22:25:55.991Z,22.00
2023-04-16T22:28:23.582Z,21.07
2023-04-16T22:30:51.130Z,20.85
2023-04-16T22:33:18.397Z,22.27
2023-04-16T22:35:45.609Z,21.80
2023-04-16T22:38:12.449Z,21.38
2023-04-16T22:40:39.313Z,21.65
2023-04-16T22:43:06.267Z,21.70
2023-04-16T22:45:33.087Z,22.35
2023-04-16T22:48:00.044Z,20.75
2023-04-16T22:50:27.232Z,21.77
2023-04-16T22:52:53.996Z,21.25
2023-04-16T22:55:21.070Z,20.90
2023-04-16T22:57:47.907Z,22.08
2023-04-16T23:00:16.560Z,21.40
2023-04-16T23:02:44.231Z,22.63
2023-04-16T23:05:11.886Z,19.63
2023-04-16T23:07:39.076Z,19.80
2023-04-16T23:10:08.232Z,18.98
2023-04-16T23:12:37.481Z,17.98
2023-04-16T23:15:06.402Z,18.80
2023-04-16T23:17:33.879Z,20.02
2023-04-16T23:20:00.932Z,19.58
2023-04-16T23:22:27.994Z,19.58
2023-04-16T23:24:54.807Z,18.70
2023-04-16T23:27:21.762Z,19.60
2023-04-16T23:29:48.683Z,20.52
2023-04-16T23:32:15.572Z,20.33
2023-04-16T23:34:42.576Z,20.30
2023-04-16T23:37:09.522Z,20.55
2023-04-16T23:39:36.368Z,21.05
2023-04-16T23:42:03.331Z,21.70
2023-04-16T23:44:30.674Z,20.42
2023-04-16T23:46:57.556Z,20.88
2023-04-16T23:49:24.674Z,21.02
2023-04-16T23:51:51.750Z,21.85
2023-04-16T23:54:18.789Z,22.65
2023-04-16T23:56:45.754Z,21.95
2023-04-16T23:59:12.866Z,22.27
